sensor_id;sensor_type;location;lat;lon;timestamp;pressure;altitude;pressure_sealevel;temperature;humidity
10518;BME280;5307;42.548;22.968;2022-07-23T00:02:18;94143.00;;;18.57;64.58
10518;BME280;5307;42.548;22.968;2022-07-23T00:04:45;94150.69;;;18.10;66.81
10518;BME280;5307;42.548;22.968;2022-07-23T00:07:12;94152.63;;;18.30;66.14
10518;BME280;5307;42.548;22.968;2022-07-23T00:09:40;94148.19;;;18.44;65.62
10518;BME280;5307;42.548;22.968;2022-07-23T00:12:27;94153.88;;;18.03;67.06
10518;BME280;5307;42.548;22.968;2022-07-23T00:14:54;94152.28;;;18.22;66.14
10518;BME280;5307;42.548;22.968;2022-07-23T00:17:20;94150.41;;;18.08;66.55
10518;BME280;5307;42.548;22.968;2022-07-23T00:19:47;94148.94;;;17.87;67.81
10518;BME280;5307;42.548;22.968;2022-07-23T00:22:14;94152.44;;;18.13;66.64
10518;BME280;5307;42.548;22.968;2022-07-23T00:24:42;94153.97;;;18.14;66.56
10518;BME280;5307;42.548;22.968;2022-07-23T00:27:09;94157.56;;;18.20;65.92
10518;BME280;5307;42.548;22.968;2022-07-23T00:29:36;94157.66;;;17.79;67.67
10518;BME280;5307;42.548;22.968;2022-07-23T00:32:03;94156.84;;;17.73;68.07
10518;BME280;5307;42.548;22.968;2022-07-23T00:34:30;94156.69;;;17.83;68.40
10518;BME280;5307;42.548;22.968;2022-07-23T00:36:57;94155.28;;;17.93;67.90
10518;BME280;5307;42.548;22.968;2022-07-23T00:39:24;94138.00;;;17.72;68.03
10518;BME280;5307;42.548;22.968;2022-07-23T00:41:52;94152.13;;;17.79;67.93
10518;BME280;5307;42.548;22.968;2022-07-23T00:44:20;94142.81;;;17.77;68.30
10518;BME280;5307;42.548;22.968;2022-07-23T00:46:49;94148.50;;;17.94;67.74
10518;BME280;5307;42.548;22.968;2022-07-23T00:49:19;94139.88;;;17.60;68.42
10518;BME280;5307;42.548;22.968;2022-07-23T00:51:46;94145.25;;;17.69;68.41
10518;BME280;5307;42.548;22.968;2022-07-23T00:54:14;94154.00;;;17.88;68.23
10518;BME280;5307;42.548;22.968;2022-07-23T00:56:42;94149.78;;;17.72;68.86
10518;BME280;5307;42.548;22.968;2022-07-23T00:59:11;94151.03;;;17.71;68.40
10518;BME280;5307;42.548;22.968;2022-07-23T01:01:38;94149.13;;;17.77;68.48
10518;BME280;5307;42.548;22.968;2022-07-23T01:04:05;94152.72;;;17.43;69.53
10518;BME280;5307;42.548;22.968;2022-07-23T01:06:35;94156.38;;;17.75;68.72
10518;BME280;5307;42.548;22.968;2022-07-23T01:09:03;94154.88;;;17.33;69.81
10518;BME280;5307;42.548;22.968;2022-07-23T01:11:33;94154.94;;;17.39;69.56
10518;BME280;5307;42.548;22.968;2022-07-23T01:14:08;94156.31;;;17.29;69.75
10518;BME280;5307;42.548;22.968;2022-07-23T01:16:36;94157.06;;;17.49;68.74
10518;BME280;5307;42.548;22.968;2022-07-23T01:19:03;94158.22;;;17.43;69.18
10518;BME280;5307;42.548;22.968;2022-07-23T01:21:34;94156.72;;;17.42;68.71
10518;BME280;5307;42.548;22.968;2022-07-23T01:24:04;94147.81;;;17.52;68.39
10518;BME280;5307;42.548;22.968;2022-07-23T01:26:31;94141.25;;;17.50;68.17
10518;BME280;5307;42.548;22.968;2022-07-23T01:28:58;94144.81;;;17.56;67.78
10518;BME280;5307;42.548;22.968;2022-07-23T01:31:25;94142.06;;;17.56;68.04
10518;BME280;5307;42.548;22.968;2022-07-23T01:33:52;94147.25;;;17.48;68.59
10518;BME280;5307;42.548;22.968;2022-07-23T01:36:19;94143.34;;;17.35;69.63
10518;BME280;5307;42.548;22.968;2022-07-23T01:38:46;94135.28;;;17.57;68.99
10518;BME280;5307;42.548;22.968;2022-07-23T01:41:14;94145.84;;;17.33;69.18
10518;BME280;5307;42.548;22.968;2022-07-23T01:43:41;94141.88;;;17.39;69.18
10518;BME280;5307;42.548;22.968;2022-07-23T01:46:07;94138.22;;;17.48;68.99
10518;BME280;5307;42.548;22.968;2022-07-23T01:48:34;94135.00;;;17.09;70.16
10518;BME280;5307;42.548;22.968;2022-07-23T01:51:01;94130.50;;;17.32;69.49
10518;BME280;5307;42.548;22.968;2022-07-23T01:53:28;94130.63;;;17.43;69.00
10518;BME280;5307;42.548;22.968;2022-07-23T01:55:56;94135.38;;;17.42;68.31
10518;BME280;5307;42.548;22.968;2022-07-23T01:58:25;94138.63;;;17.61;67.97
10518;BME280;5307;42.548;22.968;2022-07-23T02:00:52;94137.13;;;17.40;69.39
10518;BME280;5307;42.548;22.968;2022-07-23T02:03:19;94144.72;;;17.25;69.80
10518;BME280;5307;42.548;22.968;2022-07-23T02:05:46;94144.72;;;17.04;70.96
10518;BME280;5307;42.548;22.968;2022-07-23T02:08:15;94142.16;;;17.21;70.08
10518;BME280;5307;42.548;22.968;2022-07-23T02:10:42;94153.53;;;17.08;70.92
10518;BME280;5307;42.548;22.968;2022-07-23T02:13:09;94147.91;;;17.17;70.19
10518;BME280;5307;42.548;22.968;2022-07-23T02:15:38;94153.69;;;17.19;70.29
10518;BME280;5307;42.548;22.968;2022-07-23T02:18:04;94154.25;;;17.03;71.10
10518;BME280;5307;42.548;22.968;2022-07-23T02:20:33;94152.16;;;16.98;70.87
10518;BME280;5307;42.548;22.968;2022-07-23T02:23:00;94153.59;;;17.14;70.47
10518;BME280;5307;42.548;22.968;2022-07-23T02:25:27;94148.72;;;17.03;70.57
10518;BME280;5307;42.548;22.968;2022-07-23T02:27:54;94152.56;;;16.91;71.20
10518;BME280;5307;42.548;22.968;2022-07-23T02:30:20;94142.63;;;16.99;70.86
10518;BME280;5307;42.548;22.968;2022-07-23T02:32:49;94157.56;;;16.57;72.60
10518;BME280;5307;42.548;22.968;2022-07-23T02:35:17;94160.69;;;16.80;71.78
10518;BME280;5307;42.548;22.968;2022-07-23T02:37:43;94156.28;;;16.88;71.05
10518;BME280;5307;42.548;22.968;2022-07-23T02:40:10;94161.34;;;16.75;70.85
10518;BME280;5307;42.548;22.968;2022-07-23T02:42:37;94161.94;;;16.79;71.12
10518;BME280;5307;42.548;22.968;2022-07-23T02:45:05;94162.69;;;16.79;71.18
10518;BME280;5307;42.548;22.968;2022-07-23T02:47:32;94171.34;;;16.72;71.82
10518;BME280;5307;42.548;22.968;2022-07-23T02:50:00;94165.84;;;16.57;72.41
10518;BME280;5307;42.548;22.968;2022-07-23T02:52:29;94171.44;;;16.63;72.31
10518;BME280;5307;42.548;22.968;2022-07-23T02:54:55;94175.72;;;16.64;72.42
10518;BME280;5307;42.548;22.968;2022-07-23T02:57:22;94179.81;;;16.54;72.65
10518;BME280;5307;42.548;22.968;2022-07-23T02:59:49;94179.91;;;16.59;72.65
10518;BME280;5307;42.548;22.968;2022-07-23T03:02:16;94178.38;;;16.58;72.81
10518;BME280;5307;42.548;22.968;2022-07-23T03:04:42;94180.78;;;16.51;72.67
10518;BME280;5307;42.548;22.968;2022-07-23T03:07:11;94173.56;;;16.53;72.56
10518;BME280;5307;42.548;22.968;2022-07-23T03:09:37;94181.84;;;16.39;73.08
10518;BME280;5307;42.548;22.968;2022-07-23T03:12:05;94182.53;;;16.33;73.54
10518;BME280;5307;42.548;22.968;2022-07-23T03:14:32;94195.72;;;16.29;73.56
10518;BME280;5307;42.548;22.968;2022-07-23T03:16:58;94193.72;;;16.30;74.17
10518;BME280;5307;42.548;22.968;2022-07-23T03:19:26;94197.22;;;16.45;73.50
10518;BME280;5307;42.548;22.968;2022-07-23T03:21:53;94195.34;;;16.37;73.67
10518;BME280;5307;42.548;22.968;2022-07-23T03:24:21;94196.75;;;16.47;73.20
10518;BME280;5307;42.548;22.968;2022-07-23T03:27:08;94193.53;;;16.48;72.99
10518;BME280;5307;42.548;22.968;2022-07-23T03:29:35;94189.63;;;16.55;72.53
10518;BME280;5307;42.548;22.968;2022-07-23T03:32:03;94198.19;;;16.42;73.53
10518;BME280;5307;42.548;22.968;2022-07-23T03:34:30;94205.13;;;16.23;74.25
10518;BME280;5307;42.548;22.968;2022-07-23T03:36:56;94196.84;;;16.52;73.25
10518;BME280;5307;42.548;22.968;2022-07-23T03:39:25;94203.97;;;16.15;73.87
10518;BME280;5307;42.548;22.968;2022-07-23T03:41:51;94203.91;;;16.39;72.58
10518;BME280;5307;42.548;22.968;2022-07-23T03:44:18;94201.88;;;16.54;72.54
10518;BME280;5307;42.548;22.968;2022-07-23T03:46:45;94211.19;;;16.71;72.08
10518;BME280;5307;42.548;22.968;2022-07-23T03:49:12;94195.03;;;16.79;71.53
10518;BME280;5307;42.548;22.968;2022-07-23T03:51:39;94201.69;;;16.72;72.79
10518;BME280;5307;42.548;22.968;2022-07-23T03:54:06;94199.41;;;16.71;72.34
10518;BME280;5307;42.548;22.968;2022-07-23T03:56:34;94206.25;;;16.75;72.55
10518;BME280;5307;42.548;22.968;2022-07-23T03:59:01;94200.94;;;16.72;73.04
10518;BME280;5307;42.548;22.968;2022-07-23T04:01:28;94202.81;;;16.80;72.89
10518;BME280;5307;42.548;22.968;2022-07-23T04:03:55;94194.00;;;16.61;72.37
10518;BME280;5307;42.548;22.968;2022-07-23T04:06:22;94195.19;;;16.60;71.89
10518;BME280;5307;42.548;22.968;2022-07-23T04:08:48;94207.59;;;16.36;73.03
10518;BME280;5307;42.548;22.968;2022-07-23T04:11:15;94208.72;;;16.73;71.47
10518;BME280;5307;42.548;22.968;2022-07-23T04:13:43;94215.16;;;16.85;70.91
10518;BME280;5307;42.548;22.968;2022-07-23T04:16:10;94211.56;;;17.14;69.90
10518;BME280;5307;42.548;22.968;2022-07-23T04:18:37;94221.63;;;16.97;70.00
10518;BME280;5307;42.548;22.968;2022-07-23T04:21:04;94217.28;;;16.90;70.28
10518;BME280;5307;42.548;22.968;2022-07-23T04:23:31;94218.69;;;16.85;69.89
10518;BME280;5307;42.548;22.968;2022-07-23T04:25:58;94220.59;;;16.94;70.29
10518;BME280;5307;42.548;22.968;2022-07-23T04:28:24;94218.69;;;17.20;70.08
10518;BME280;5307;42.548;22.968;2022-07-23T04:30:56;94217.72;;;17.24;71.49
10518;BME280;5307;42.548;22.968;2022-07-23T04:33:23;94223.41;;;17.35;72.08
10518;BME280;5307;42.548;22.968;2022-07-23T04:35:49;94210.84;;;17.34;70.43
10518;BME280;5307;42.548;22.968;2022-07-23T04:38:16;94219.94;;;17.40;69.30
10518;BME280;5307;42.548;22.968;2022-07-23T04:40:43;94220.03;;;17.66;68.29
10518;BME280;5307;42.548;22.968;2022-07-23T04:43:11;94214.16;;;17.78;67.57
10518;BME280;5307;42.548;22.968;2022-07-23T04:45:38;94223.19;;;17.99;67.29
10518;BME280;5307;42.548;22.968;2022-07-23T04:48:06;94219.03;;;18.09;67.05
10518;BME280;5307;42.548;22.968;2022-07-23T04:50:33;94217.28;;;18.12;67.48
10518;BME280;5307;42.548;22.968;2022-07-23T04:52:59;94205.31;;;17.95;69.12
10518;BME280;5307;42.548;22.968;2022-07-23T04:55:26;94220.13;;;18.18;67.38
10518;BME280;5307;42.548;22.968;2022-07-23T04:57:53;94222.66;;;18.21;67.07
10518;BME280;5307;42.548;22.968;2022-07-23T05:00:20;94219.91;;;18.21;67.06
10518;BME280;5307;42.548;22.968;2022-07-23T05:02:47;94221.44;;;18.28;66.54
10518;BME280;5307;42.548;22.968;2022-07-23T05:05:15;94226.66;;;18.46;66.49
10518;BME280;5307;42.548;22.968;2022-07-23T05:07:42;94232.34;;;18.63;67.10
10518;BME280;5307;42.548;22.968;2022-07-23T05:10:09;94231.25;;;18.55;66.30
10518;BME280;5307;42.548;22.968;2022-07-23T05:12:36;94230.72;;;18.51;66.35
10518;BME280;5307;42.548;22.968;2022-07-23T05:15:03;94232.91;;;18.67;66.08
10518;BME280;5307;42.548;22.968;2022-07-23T05:17:30;94230.56;;;18.91;65.89
10518;BME280;5307;42.548;22.968;2022-07-23T05:19:57;94233.97;;;19.12;64.41
10518;BME280;5307;42.548;22.968;2022-07-23T05:22:25;94241.41;;;19.32;66.30
10518;BME280;5307;42.548;22.968;2022-07-23T05:24:52;94240.16;;;19.33;64.72
10518;BME280;5307;42.548;22.968;2022-07-23T05:27:18;94240.06;;;19.16;65.18
10518;BME280;5307;42.548;22.968;2022-07-23T05:29:45;94232.03;;;19.24;64.98
10518;BME280;5307;42.548;22.968;2022-07-23T05:32:12;94240.25;;;19.50;65.76
10518;BME280;5307;42.548;22.968;2022-07-23T05:34:39;94227.03;;;19.71;64.08
10518;BME280;5307;42.548;22.968;2022-07-23T05:37:05;94242.28;;;20.09;65.90
10518;BME280;5307;42.548;22.968;2022-07-23T05:39:34;94240.81;;;20.25;62.81
10518;BME280;5307;42.548;22.968;2022-07-23T05:42:01;94226.53;;;20.71;63.92
10518;BME280;5307;42.548;22.968;2022-07-23T05:44:28;94239.13;;;21.28;61.98
10518;BME280;5307;42.548;22.968;2022-07-23T05:46:54;94234.84;;;21.27;62.46
10518;BME280;5307;42.548;22.968;2022-07-23T05:49:21;94232.06;;;21.27;60.99
10518;BME280;5307;42.548;22.968;2022-07-23T05:51:48;94230.28;;;21.18;60.63
10518;BME280;5307;42.548;22.968;2022-07-23T05:54:15;94228.72;;;21.51;60.78
10518;BME280;5307;42.548;22.968;2022-07-23T05:56:43;94224.00;;;21.92;59.76
10518;BME280;5307;42.548;22.968;2022-07-23T05:59:10;94229.63;;;21.81;59.16
10518;BME280;5307;42.548;22.968;2022-07-23T06:01:38;94230.09;;;21.97;58.62
10518;BME280;5307;42.548;22.968;2022-07-23T06:04:05;94225.41;;;22.21;58.07
10518;BME280;5307;42.548;22.968;2022-07-23T06:06:31;94224.91;;;23.00;56.89
10518;BME280;5307;42.548;22.968;2022-07-23T06:08:58;94227.59;;;22.40;56.52
10518;BME280;5307;42.548;22.968;2022-07-23T06:11:25;94228.06;;;22.85;56.32
10518;BME280;5307;42.548;22.968;2022-07-23T06:13:53;94223.25;;;23.16;55.14
10518;BME280;5307;42.548;22.968;2022-07-23T06:16:20;94232.91;;;23.39;54.21
10518;BME280;5307;42.548;22.968;2022-07-23T06:18:47;94228.34;;;23.66;53.82
10518;BME280;5307;42.548;22.968;2022-07-23T06:21:14;94221.16;;;22.92;56.08
10518;BME280;5307;42.548;22.968;2022-07-23T06:23:40;94233.50;;;23.81;54.47
10518;BME280;5307;42.548;22.968;2022-07-23T06:26:07;94224.63;;;23.58;53.05
10518;BME280;5307;42.548;22.968;2022-07-23T06:28:35;94232.09;;;24.12;54.72
10518;BME280;5307;42.548;22.968;2022-07-23T06:31:03;94226.34;;;23.85;52.61
10518;BME280;5307;42.548;22.968;2022-07-23T06:33:30;94226.91;;;24.21;53.46
10518;BME280;5307;42.548;22.968;2022-07-23T06:35:57;94220.50;;;24.96;50.57
10518;BME280;5307;42.548;22.968;2022-07-23T06:38:23;94226.03;;;23.89;51.43
10518;BME280;5307;42.548;22.968;2022-07-23T06:40:50;94219.75;;;24.26;51.82
10518;BME280;5307;42.548;22.968;2022-07-23T06:43:17;94217.31;;;24.54;51.30
10518;BME280;5307;42.548;22.968;2022-07-23T06:45:44;94206.44;;;24.70;51.17
10518;BME280;5307;42.548;22.968;2022-07-23T06:48:12;94216.25;;;24.20;52.19
10518;BME280;5307;42.548;22.968;2022-07-23T06:50:39;94211.75;;;24.54;51.15
10518;BME280;5307;42.548;22.968;2022-07-23T06:53:06;94219.50;;;24.24;51.87
10518;BME280;5307;42.548;22.968;2022-07-23T06:55:33;94200.56;;;24.86;51.04
10518;BME280;5307;42.548;22.968;2022-07-23T06:58:03;94212.34;;;25.57;48.74
10518;BME280;5307;42.548;22.968;2022-07-23T07:00:30;94207.78;;;24.63;51.12
10518;BME280;5307;42.548;22.968;2022-07-23T07:02:57;94201.94;;;25.84;50.77
10518;BME280;5307;42.548;22.968;2022-07-23T07:05:26;94203.38;;;25.32;48.22
10518;BME280;5307;42.548;22.968;2022-07-23T07:07:53;94204.09;;;25.78;47.50
10518;BME280;5307;42.548;22.968;2022-07-23T07:10:20;94205.63;;;26.39;47.57
10518;BME280;5307;42.548;22.968;2022-07-23T07:12:47;94205.75;;;25.41;47.93
10518;BME280;5307;42.548;22.968;2022-07-23T07:15:14;94202.13;;;25.72;46.89
10518;BME280;5307;42.548;22.968;2022-07-23T07:17:41;94198.03;;;25.87;46.28
10518;BME280;5307;42.548;22.968;2022-07-23T07:20:09;94197.13;;;26.66;46.61
10518;BME280;5307;42.548;22.968;2022-07-23T07:22:38;94185.16;;;26.86;44.52
10518;BME280;5307;42.548;22.968;2022-07-23T07:25:05;94186.81;;;26.60;45.28
10518;BME280;5307;42.548;22.968;2022-07-23T07:27:33;94181.22;;;26.81;45.99
10518;BME280;5307;42.548;22.968;2022-07-23T07:30:00;94188.09;;;27.64;46.35
10518;BME280;5307;42.548;22.968;2022-07-23T07:32:26;94179.56;;;27.56;45.12
10518;BME280;5307;42.548;22.968;2022-07-23T07:34:54;94179.91;;;27.73;45.46
10518;BME280;5307;42.548;22.968;2022-07-23T07:37:21;94182.06;;;27.60;43.99
10518;BME280;5307;42.548;22.968;2022-07-23T07:39:49;94181.69;;;27.35;43.63
10518;BME280;5307;42.548;22.968;2022-07-23T07:42:16;94182.56;;;28.82;43.37
10518;BME280;5307;42.548;22.968;2022-07-23T07:44:43;94184.31;;;27.90;46.24
10518;BME280;5307;42.548;22.968;2022-07-23T07:47:09;94179.13;;;27.73;44.46
10518;BME280;5307;42.548;22.968;2022-07-23T07:49:36;94171.44;;;28.02;43.73
10518;BME280;5307;42.548;22.968;2022-07-23T07:52:04;94178.88;;;27.92;40.67
10518;BME280;5307;42.548;22.968;2022-07-23T07:54:31;94175.56;;;28.45;40.30
10518;BME280;5307;42.548;22.968;2022-07-23T07:57:00;94167.13;;;28.45;42.48
10518;BME280;5307;42.548;22.968;2022-07-23T07:59:27;94168.84;;;28.55;40.46
10518;BME280;5307;42.548;22.968;2022-07-23T08:01:53;94170.28;;;28.33;41.77
10518;BME280;5307;42.548;22.968;2022-07-23T08:04:20;94164.66;;;28.33;40.96
10518;BME280;5307;42.548;22.968;2022-07-23T08:06:47;94163.88;;;29.15;42.96
10518;BME280;5307;42.548;22.968;2022-07-23T08:09:14;94167.81;;;29.58;40.43
10518;BME280;5307;42.548;22.968;2022-07-23T08:11:41;94160.13;;;29.50;41.85
10518;BME280;5307;42.548;22.968;2022-07-23T08:14:09;94159.16;;;29.40;41.73
10518;BME280;5307;42.548;22.968;2022-07-23T08:16:36;94155.88;;;30.12;39.75
10518;BME280;5307;42.548;22.968;2022-07-23T08:19:03;94153.84;;;30.38;38.98
10518;BME280;5307;42.548;22.968;2022-07-23T08:21:30;94148.03;;;30.36;38.56
10518;BME280;5307;42.548;22.968;2022-07-23T08:23:57;94148.25;;;30.30;38.29
10518;BME280;5307;42.548;22.968;2022-07-23T08:26:23;94141.88;;;30.30;37.40
10518;BME280;5307;42.548;22.968;2022-07-23T08:28:50;94141.78;;;29.97;39.53
10518;BME280;5307;42.548;22.968;2022-07-23T08:31:18;94147.88;;;30.26;37.60
10518;BME280;5307;42.548;22.968;2022-07-23T08:33:45;94149.19;;;29.85;37.84
10518;BME280;5307;42.548;22.968;2022-07-23T08:36:12;94143.16;;;29.81;36.26
10518;BME280;5307;42.548;22.968;2022-07-23T08:38:39;94147.25;;;30.43;38.47
10518;BME280;5307;42.548;22.968;2022-07-23T08:41:07;94134.59;;;30.19;38.59
10518;BME280;5307;42.548;22.968;2022-07-23T08:43:34;94134.78;;;30.54;39.18
10518;BME280;5307;42.548;22.968;2022-07-23T08:46:02;94137.16;;;30.72;37.23
10518;BME280;5307;42.548;22.968;2022-07-23T08:48:32;94140.22;;;30.59;36.52
10518;BME280;5307;42.548;22.968;2022-07-23T08:51:01;94127.28;;;30.56;35.83
10518;BME280;5307;42.548;22.968;2022-07-23T08:53:30;94130.34;;;30.76;37.10
10518;BME280;5307;42.548;22.968;2022-07-23T08:55:58;94126.72;;;30.50;34.36
10518;BME280;5307;42.548;22.968;2022-07-23T08:58:27;94137.22;;;30.90;38.27
10518;BME280;5307;42.548;22.968;2022-07-23T09:00:54;94131.06;;;31.51;34.25
10518;BME280;5307;42.548;22.968;2022-07-23T09:03:23;94133.44;;;31.37;34.64
10518;BME280;5307;42.548;22.968;2022-07-23T09:05:53;94130.88;;;31.31;35.76
10518;BME280;5307;42.548;22.968;2022-07-23T09:08:23;94132.91;;;30.89;31.43
10518;BME280;5307;42.548;22.968;2022-07-23T09:10:52;94137.38;;;30.92;29.49
10518;BME280;5307;42.548;22.968;2022-07-23T09:13:35;94124.91;;;31.27;30.41
10518;BME280;5307;42.548;22.968;2022-07-23T09:16:09;94127.44;;;31.58;30.63
10518;BME280;5307;42.548;22.968;2022-07-23T09:18:41;94128.06;;;31.49;28.69
10518;BME280;5307;42.548;22.968;2022-07-23T09:21:20;94121.41;;;31.37;27.17
10518;BME280;5307;42.548;22.968;2022-07-23T09:23:51;94131.03;;;31.34;27.73
10518;BME280;5307;42.548;22.968;2022-07-23T09:26:36;94127.78;;;31.79;27.63
10518;BME280;5307;42.548;22.968;2022-07-23T09:29:10;94126.44;;;31.80;26.92
10518;BME280;5307;42.548;22.968;2022-07-23T09:31:49;94121.09;;;32.19;27.88
10518;BME280;5307;42.548;22.968;2022-07-23T09:34:19;94110.66;;;31.95;27.44
10518;BME280;5307;42.548;22.968;2022-07-23T09:36:48;94115.78;;;32.23;30.15
10518;BME280;5307;42.548;22.968;2022-07-23T09:39:27;94110.34;;;32.52;30.74
10518;BME280;5307;42.548;22.968;2022-07-23T09:41:54;94103.91;;;32.07;27.14
10518;BME280;5307;42.548;22.968;2022-07-23T09:44:21;94103.69;;;31.78;25.35
10518;BME280;5307;42.548;22.968;2022-07-23T09:46:50;94108.03;;;31.97;25.52
10518;BME280;5307;42.548;22.968;2022-07-23T09:49:19;94109.84;;;31.84;24.64
10518;BME280;5307;42.548;22.968;2022-07-23T09:51:52;94100.94;;;32.49;26.31
10518;BME280;5307;42.548;22.968;2022-07-23T09:54:24;94103.66;;;32.84;31.04
10518;BME280;5307;42.548;22.968;2022-07-23T09:56:55;94096.88;;;32.43;23.67
10518;BME280;5307;42.548;22.968;2022-07-23T09:59:31;94093.41;;;32.62;24.76
10518;BME280;5307;42.548;22.968;2022-07-23T10:02:00;94094.16;;;32.62;24.62
10518;BME280;5307;42.548;22.968;2022-07-23T10:04:28;94081.47;;;32.54;25.51
10518;BME280;5307;42.548;22.968;2022-07-23T10:07:00;94088.09;;;32.66;26.25
10518;BME280;5307;42.548;22.968;2022-07-23T10:09:31;94069.94;;;31.98;24.32
10518;BME280;5307;42.548;22.968;2022-07-23T10:12:01;94082.72;;;32.70;26.73
10518;BME280;5307;42.548;22.968;2022-07-23T10:14:35;94079.53;;;32.83;27.32
10518;BME280;5307;42.548;22.968;2022-07-23T10:17:02;94074.78;;;32.86;26.26
10518;BME280;5307;42.548;22.968;2022-07-23T10:19:30;94085.44;;;32.77;25.91
10518;BME280;5307;42.548;22.968;2022-07-23T10:22:00;94082.53;;;32.85;24.77
10518;BME280;5307;42.548;22.968;2022-07-23T10:24:40;94077.81;;;33.07;24.86
10518;BME280;5307;42.548;22.968;2022-07-23T10:27:26;94074.03;;;32.85;23.16
10518;BME280;5307;42.548;22.968;2022-07-23T10:30:02;94070.00;;;32.88;22.75
10518;BME280;5307;42.548;22.968;2022-07-23T10:32:37;94070.31;;;32.92;22.99
10518;BME280;5307;42.548;22.968;2022-07-23T10:35:15;94064.25;;;32.96;23.39
10518;BME280;5307;42.548;22.968;2022-07-23T10:37:49;94061.88;;;33.02;23.77
10518;BME280;5307;42.548;22.968;2022-07-23T10:40:19;94057.50;;;32.91;22.82
10518;BME280;5307;42.548;22.968;2022-07-23T10:42:50;94046.88;;;33.28;24.35
10518;BME280;5307;42.548;22.968;2022-07-23T10:45:24;94044.16;;;33.21;24.32
10518;BME280;5307;42.548;22.968;2022-07-23T10:47:51;94041.41;;;33.59;25.68
10518;BME280;5307;42.548;22.968;2022-07-23T10:50:23;94039.91;;;33.49;24.40
10518;BME280;5307;42.548;22.968;2022-07-23T10:53:13;94037.22;;;33.41;22.60
10518;BME280;5307;42.548;22.968;2022-07-23T10:55:44;94036.34;;;33.68;21.31
10518;BME280;5307;42.548;22.968;2022-07-23T10:58:12;94034.09;;;33.56;21.07
10518;BME280;5307;42.548;22.968;2022-07-23T11:00:44;94036.75;;;33.25;20.25
10518;BME280;5307;42.548;22.968;2022-07-23T11:03:33;94031.72;;;33.43;23.52
10518;BME280;5307;42.548;22.968;2022-07-23T11:06:02;94018.16;;;33.42;22.72
10518;BME280;5307;42.548;22.968;2022-07-23T11:08:31;94021.75;;;33.52;22.90
10518;BME280;5307;42.548;22.968;2022-07-23T11:11:11;94015.00;;;33.47;22.61
10518;BME280;5307;42.548;22.968;2022-07-23T11:13:46;94013.84;;;33.50;23.83
10518;BME280;5307;42.548;22.968;2022-07-23T11:16:16;94012.28;;;33.20;19.40
10518;BME280;5307;42.548;22.968;2022-07-23T11:19:04;94005.59;;;33.25;22.78
10518;BME280;5307;42.548;22.968;2022-07-23T11:21:48;93999.63;;;33.21;21.76
10518;BME280;5307;42.548;22.968;2022-07-23T11:24:18;94004.16;;;33.53;27.13
10518;BME280;5307;42.548;22.968;2022-07-23T11:26:54;93999.22;;;33.44;24.02
10518;BME280;5307;42.548;22.968;2022-07-23T11:29:48;94007.56;;;33.61;22.39
10518;BME280;5307;42.548;22.968;2022-07-23T11:32:29;94003.09;;;33.58;24.57
10518;BME280;5307;42.548;22.968;2022-07-23T11:34:58;93994.44;;;33.66;24.79
10518;BME280;5307;42.548;22.968;2022-07-23T11:37:34;93989.97;;;33.34;21.53
10518;BME280;5307;42.548;22.968;2022-07-23T11:40:06;94002.88;;;32.98;28.69
10518;BME280;5307;42.548;22.968;2022-07-23T11:42:36;93997.84;;;33.26;22.37
10518;BME280;5307;42.548;22.968;2022-07-23T11:45:06;93992.41;;;32.91;21.69
10518;BME280;5307;42.548;22.968;2022-07-23T11:47:33;93980.97;;;32.99;20.28
10518;BME280;5307;42.548;22.968;2022-07-23T11:50:04;93989.19;;;32.95;20.20
10518;BME280;5307;42.548;22.968;2022-07-23T11:52:32;93979.47;;;32.88;21.15
10518;BME280;5307;42.548;22.968;2022-07-23T11:55:02;93973.72;;;33.25;23.86
10518;BME280;5307;42.548;22.968;2022-07-23T11:57:31;93972.81;;;33.32;23.96
10518;BME280;5307;42.548;22.968;2022-07-23T12:00:02;93973.00;;;32.68;20.26
10518;BME280;5307;42.548;22.968;2022-07-23T12:02:30;93972.50;;;32.99;24.02
10518;BME280;5307;42.548;22.968;2022-07-23T12:04:56;93950.66;;;33.38;24.24
10518;BME280;5307;42.548;22.968;2022-07-23T12:07:28;93964.47;;;33.34;20.67
10518;BME280;5307;42.548;22.968;2022-07-23T12:09:56;93970.28;;;33.17;21.00
10518;BME280;5307;42.548;22.968;2022-07-23T12:12:25;93965.78;;;32.94;22.50
10518;BME280;5307;42.548;22.968;2022-07-23T12:14:54;93962.19;;;32.94;19.50
10518;BME280;5307;42.548;22.968;2022-07-23T12:17:26;93958.94;;;33.07;23.98
10518;BME280;5307;42.548;22.968;2022-07-23T12:19:54;93961.16;;;32.99;21.53
10518;BME280;5307;42.548;22.968;2022-07-23T12:22:26;93952.22;;;32.83;19.28
10518;BME280;5307;42.548;22.968;2022-07-23T12:25:03;93955.97;;;32.95;19.22
10518;BME280;5307;42.548;22.968;2022-07-23T12:27:32;93951.03;;;32.96;19.10
10518;BME280;5307;42.548;22.968;2022-07-23T12:30:00;93939.22;;;32.80;19.33
10518;BME280;5307;42.548;22.968;2022-07-23T12:32:43;93940.09;;;32.73;20.90
10518;BME280;5307;42.548;22.968;2022-07-23T12:35:11;93921.09;;;32.83;20.52
10518;BME280;5307;42.548;22.968;2022-07-23T12:37:39;93940.63;;;32.98;23.58
10518;BME280;5307;42.548;22.968;2022-07-23T12:40:22;93925.66;;;32.78;18.69
10518;BME280;5307;42.548;22.968;2022-07-23T12:42:52;93930.16;;;32.91;23.42
10518;BME280;5307;42.548;22.968;2022-07-23T12:45:19;93917.09;;;33.15;20.18
10518;BME280;5307;42.548;22.968;2022-07-23T12:48:01;93923.34;;;33.14;23.69
10518;BME280;5307;42.548;22.968;2022-07-23T12:50:50;93923.34;;;33.14;21.72
10518;BME280;5307;42.548;22.968;2022-07-23T12:53:19;93923.78;;;32.81;20.25
10518;BME280;5307;42.548;22.968;2022-07-23T12:55:47;93922.72;;;33.05;21.30
10518;BME280;5307;42.548;22.968;2022-07-23T12:58:18;93919.47;;;32.99;23.19
10518;BME280;5307;42.548;22.968;2022-07-23T13:00:57;93925.50;;;32.76;21.61
10518;BME280;5307;42.548;22.968;2022-07-23T13:03:29;93922.69;;;32.67;19.63
10518;BME280;5307;42.548;22.968;2022-07-23T13:05:57;93923.03;;;32.90;19.50
10518;BME280;5307;42.548;22.968;2022-07-23T13:08:26;93920.19;;;32.90;20.92
10518;BME280;5307;42.548;22.968;2022-07-23T13:10:53;93918.22;;;32.73;20.45